createdAt,value
2023-03-01T00:01:50.126Z,-1.50
2023-03-01T00:04:18.722Z,-1.60
2023-03-01T00:06:47.590Z,-1.70
2023-03-01T00:09:16.710Z,-1.70
2023-03-01T00:11:46.752Z,-1.70
2023-03-01T00:14:17.257Z,-1.70
2023-03-01T00:16:47.559Z,-1.60
2023-03-01T00:19:20.756Z,-1.70
2023-03-01T00:21:49.245Z,-1.70
2023-03-01T00:24:18.070Z,-1.70
2023-03-01T00:26:47.849Z,-1.70
2023-03-01T00:29:16.184Z,-1.60
2023-03-01T00:31:44.749Z,-1.60
2023-03-01T00:34:13.007Z,-1.60
2023-03-01T00:36:41.336Z,-1.60
2023-03-01T00:39:15.498Z,-1.60
2023-03-01T00:41:48.056Z,-1.70
2023-03-01T00:44:16.262Z,-1.70
2023-03-01T00:46:44.571Z,-1.80
2023-03-01T00:49:12.838Z,-1.80
2023-03-01T00:51:42.465Z,-1.80
2023-03-01T00:54:11.499Z,-1.80
2023-03-01T00:56:39.893Z,-1.80
2023-03-01T00:59:09.545Z,-1.70
2023-03-01T01:01:37.914Z,-1.70
2023-03-01T01:04:09.379Z,-1.70
2023-03-01T01:06:40.751Z,-1.70
2023-03-01T01:09:10.420Z,-1.70
2023-03-01T01:11:39.124Z,-1.70
2023-03-01T01:14:07.659Z,-1.70
2023-03-01T01:16:37.745Z,-1.70
2023-03-01T01:19:06.330Z,-1.70
2023-03-01T01:21:34.675Z,-1.60
2023-03-01T01:24:06.313Z,-1.60
2023-03-01T01:26:36.283Z,-1.70
2023-03-01T01:29:06.922Z,-1.70
2023-03-01T01:31:38.794Z,-1.80
2023-03-01T01:34:10.273Z,-1.80
2023-03-01T01:36:38.672Z,-1.80
2023-03-01T01:39:07.241Z,-1.90
2023-03-01T01:41:35.853Z,-1.90
2023-03-01T01:44:17.887Z,-2.00
2023-03-01T01:46:51.714Z,-2.00
2023-03-01T01:49:30.829Z,-2.00
2023-03-01T01:52:07.935Z,-2.10
2023-03-01T01:54:44.352Z,-2.10
2023-03-01T01:57:20.693Z,-2.10
2023-03-01T01:59:55.062Z,-2.10
2023-03-01T02:02:25.148Z,-2.10
2023-03-01T02:05:05.009Z,-2.10
2023-03-01T02:07:33.820Z,-2.10
2023-03-01T02:10:02.572Z,-2.20
2023-03-01T02:12:31.779Z,-2.30
2023-03-01T02:15:00.174Z,-2.40
2023-03-01T02:17:29.853Z,-2.50
2023-03-01T02:20:17.036Z,-2.50
2023-03-01T02:22:47.593Z,-2.50
2023-03-01T02:25:31.845Z,-2.50
2023-03-01T02:28:09.776Z,-2.50
2023-03-01T02:30:59.488Z,-2.50
2023-03-01T02:33:27.592Z,-2.60
2023-03-01T02:35:57.349Z,-2.70
2023-03-01T02:38:26.314Z,-2.60
2023-03-01T02:40:56.031Z,-2.70
2023-03-01T02:43:29.929Z,-2.70
2023-03-01T02:46:01.729Z,-2.70
2023-03-01T02:48:29.980Z,-2.70
2023-03-01T02:51:13.878Z,-2.70
2023-03-01T02:53:51.953Z,-2.70
2023-03-01T02:56:20.522Z,-2.70
2023-03-01T02:58:52.542Z,-2.70
2023-03-01T03:01:22.732Z,-2.70
2023-03-01T03:03:51.096Z,-2.60
2023-03-01T03:06:19.369Z,-2.60
2023-03-01T03:08:47.716Z,-2.60
2023-03-01T03:11:16.213Z,-2.70
2023-03-01T03:13:49.104Z,-2.70
2023-03-01T03:16:17.717Z,-2.70
2023-03-01T03:18:47.548Z,-2.70
2023-03-01T03:21:17.269Z,-2.70
2023-03-01T03:23:46.053Z,-2.80
2023-03-01T03:26:16.242Z,-2.70
2023-03-01T03:28:44.640Z,-2.70
2023-03-01T03:31:13.032Z,-2.70
2023-03-01T03:33:41.315Z,-2.70
2023-03-01T03:36:13.837Z,-2.70
2023-03-01T03:38:42.658Z,-2.60
2023-03-01T03:41:11.092Z,-2.60
2023-03-01T03:43:43.571Z,-2.50
2023-03-01T03:46:13.386Z,-2.60
2023-03-01T03:48:44.869Z,-2.60
2023-03-01T03:51:16.140Z,-2.60
2023-03-01T03:53:45.353Z,-2.60
2023-03-01T03:56:14.221Z,-2.50
2023-03-01T03:58:42.688Z,-2.60
2023-03-01T04:01:10.951Z,-2.50
2023-03-01T04:03:39.222Z,-2.50
2023-03-01T04:06:08.307Z,-2.50
2023-03-01T04:08:38.000Z,-2.50
2023-03-01T04:11:21.524Z,-2.50
2023-03-01T04:13:50.200Z,-2.60
2023-03-01T04:16:18.684Z,-2.50
2023-03-01T04:18:47.632Z,-2.50
2023-03-01T04:21:16.007Z,-2.50
2023-03-01T04:23:45.797Z,-2.50
2023-03-01T04:26:14.085Z,-2.50
2023-03-01T04:28:46.307Z,-2.50
2023-03-01T04:31:18.401Z,-2.50
2023-03-01T04:33:49.912Z,-2.60
2023-03-01T04:36:19.474Z,-2.60
2023-03-01T04:38:49.407Z,-2.60
2023-03-01T04:41:20.750Z,-2.60
2023-03-01T04:43:50.372Z,-2.60
2023-03-01T04:46:21.895Z,-2.60
2023-03-01T04:48:51.404Z,-2.60
2023-03-01T04:51:19.799Z,-2.60
2023-03-01T04:53:49.890Z,-2.50
2023-03-01T04:56:19.025Z,-2.50
2023-03-01T04:58:48.349Z,-2.60
2023-03-01T05:01:20.344Z,-2.60
2023-03-01T05:03:51.049Z,-2.50
2023-03-01T05:06:21.436Z,-2.50
2023-03-01T05:08:51.144Z,-2.50
2023-03-01T05:11:19.401Z,-2.50
2023-03-01T05:13:47.821Z,-2.60
2023-03-01T05:16:16.239Z,-2.60
2023-03-01T05:18:45.190Z,-2.50
2023-03-01T05:21:17.690Z,-2.50
2023-03-01T05:23:47.877Z,-2.50
2023-03-01T05:26:28.332Z,-2.50
2023-03-01T05:28:59.758Z,-2.50
2023-03-01T05:31:28.925Z,-2.60
2023-03-01T05:33:57.210Z,-2.60
2023-03-01T05:36:25.635Z,-2.60
2023-03-01T05:38:53.957Z,-2.60
2023-03-01T05:41:23.665Z,-2.60
2023-03-01T05:43:52.052Z,-2.70
2023-03-01T05:46:20.360Z,-2.70
2023-03-01T05:48:49.357Z,-2.80
2023-03-01T05:51:18.577Z,-2.80
2023-03-01T05:53:46.835Z,-2.80
2023-03-01T05:56:15.148Z,-2.80
2023-03-01T05:58:44.875Z,-2.80
2023-03-01T06:01:15.127Z,-2.90
2023-03-01T06:03:43.494Z,-2.90
2023-03-01T06:06:11.830Z,-2.90
2023-03-01T06:08:40.110Z,-2.90
2023-03-01T06:11:08.694Z,-2.90
2023-03-01T06:13:37.441Z,-2.90
2023-03-01T06:16:09.765Z,-2.90
2023-03-01T06:18:38.576Z,-2.90
2023-03-01T06:21:07.804Z,-3.00
2023-03-01T06:23:36.985Z,-3.00
2023-03-01T06:26:09.358Z,-3.10
2023-03-01T06:28:38.035Z,-3.10
2023-03-01T06:31:09.959Z,-3.10
2023-03-01T06:33:38.482Z,-3.10
2023-03-01T06:36:08.029Z,-3.10
2023-03-01T06:38:36.496Z,-3.10
2023-03-01T06:41:05.000Z,-3.10
2023-03-01T06:43:33.449Z,-3.10
2023-03-01T06:46:02.130Z,-3.10
2023-03-01T06:48:32.029Z,-3.10
2023-03-01T06:51:01.616Z,-3.10
2023-03-01T06:53:30.187Z,-3.00
2023-03-01T06:56:00.167Z,-3.00
2023-03-01T06:58:28.880Z,-3.10
2023-03-01T07:00:57.154Z,-3.10
2023-03-01T07:03:25.417Z,-2.90
2023-03-01T07:05:55.074Z,-2.80
2023-03-01T07:08:23.864Z,-2.70
2023-03-01T07:10:58.052Z,-2.60
2023-03-01T07:13:26.710Z,-2.50
2023-03-01T07:15:55.088Z,-2.50
2023-03-01T07:18:23.430Z,-2.40
2023-03-01T07:20:52.145Z,-2.30
2023-03-01T07:23:21.833Z,-2.10
2023-03-01T07:25:55.170Z,-2.00
2023-03-01T07:28:25.534Z,-2.00
2023-03-01T07:30:54.290Z,-1.90
2023-03-01T07:33:22.766Z,-1.80
2023-03-01T07:35:51.116Z,-1.70
2023-03-01T07:38:19.400Z,-1.60
2023-03-01T07:40:49.062Z,-1.60
2023-03-01T07:43:17.361Z,-1.50
2023-03-01T07:45:46.154Z,-1.40
2023-03-01T07:48:14.393Z,-1.30
2023-03-01T07:50:43.078Z,-1.20
2023-03-01T07:53:11.751Z,-1.10
2023-03-01T07:55:40.219Z,-1.00
2023-03-01T07:58:09.946Z,-0.90
2023-03-01T08:00:38.289Z,-0.80
2023-03-01T08:03:06.692Z,-0.70
2023-03-01T08:05:35.023Z,-0.50
2023-03-01T08:08:03.457Z,-0.40
2023-03-01T08:10:31.746Z,-0.20
2023-03-01T08:13:00.011Z,0.00
2023-03-01T08:15:29.666Z,0.00
2023-03-01T08:17:57.964Z,0.20
2023-03-01T08:20:26.271Z,0.40
2023-03-01T08:22:54.629Z,0.50
2023-03-01T08:25:22.934Z,0.70
2023-03-01T08:27:51.146Z,0.90
2023-03-01T08:30:20.149Z,1.00
2023-03-01T08:32:49.930Z,1.20
2023-03-01T08:35:18.605Z,1.40
2023-03-01T08:37:46.897Z,1.50
2023-03-01T08:40:16.146Z,1.70
2023-03-01T08:42:45.277Z,1.80
2023-03-01T08:45:15.243Z,2.00
2023-03-01T08:47:43.564Z,2.10
2023-03-01T08:50:13.726Z,2.20
2023-03-01T08:52:42.050Z,2.40
2023-03-01T08:55:11.483Z,2.60
2023-03-01T08:57:39.743Z,2.80
2023-03-01T09:00:10.580Z,2.90
2023-03-01T09:02:39.787Z,3.00
2023-03-01T09:05:08.902Z,3.20
2023-03-01T09:07:38.527Z,3.30
2023-03-01T09:10:08.233Z,3.40
2023-03-01T09:12:36.585Z,3.50
2023-03-01T09:15:05.745Z,3.60
2023-03-01T09:17:33.967Z,3.80
2023-03-01T09:20:02.246Z,3.90
2023-03-01T09:22:30.503Z,4.00
2023-03-01T09:25:00.135Z,4.20
2023-03-01T09:27:28.575Z,4.30
2023-03-01T09:29:57.275Z,4.40
2023-03-01T09:32:25.645Z,4.50
2023-03-01T09:35:05.513Z,4.50
2023-03-01T09:37:35.573Z,4.60
2023-03-01T09:40:07.432Z,4.70
2023-03-01T09:42:38.286Z,4.80
2023-03-01T09:45:08.403Z,4.80
2023-03-01T09:47:38.202Z,5.00
2023-03-01T09:50:13.448Z,5.10
2023-03-01T09:52:44.728Z,5.30
2023-03-01T09:55:17.220Z,5.40
2023-03-01T09:57:52.784Z,5.40
2023-03-01T10:00:37.736Z,5.60
2023-03-01T10:03:17.949Z,5.60
2023-03-01T10:06:01.258Z,5.70
2023-03-01T10:08:39.939Z,5.60
2023-03-01T10:11:25.333Z,5.70
2023-03-01T10:14:01.125Z,5.80
2023-03-01T10:16:39.369Z,6.00
2023-03-01T10:19:14.765Z,6.10
2023-03-01T10:21:47.783Z,6.10
2023-03-01T10:24:20.985Z,6.20
2023-03-01T10:26:57.594Z,6.20
2023-03-01T10:29:32.891Z,6.50
2023-03-01T10:32:01.326Z,6.40
2023-03-01T10:34:33.129Z,6.60
2023-03-01T10:37:13.505Z,6.60
2023-03-01T10:40:00.252Z,6.80
2023-03-01T10:42:32.770Z,7.10
2023-03-01T10:45:17.770Z,6.90
2023-03-01T10:47:46.409Z,6.90
2023-03-01T10:50:23.190Z,6.70
2023-03-01T10:53:01.617Z,6.90
2023-03-01T10:55:37.157Z,7.20
2023-03-01T10:58:21.733Z,7.20
2023-03-01T11:00:53.726Z,7.50
2023-03-01T11:03:26.015Z,7.50
2023-03-01T11:06:02.645Z,7.60
2023-03-01T11:08:42.100Z,7.80
2023-03-01T11:11:33.773Z,7.90
2023-03-01T11:14:25.043Z,8.20
2023-03-01T11:17:03.137Z,8.40
2023-03-01T11:19:31.545Z,8.50
2023-03-01T11:22:05.437Z,8.70
2023-03-01T11:24:43.194Z,8.70
2023-03-01T11:27:21.874Z,9.00
2023-03-01T11:29:59.377Z,9.00
2023-03-01T11:32:33.407Z,8.80
2023-03-01T11:35:07.721Z,9.00
2023-03-01T11:37:42.094Z,9.30
2023-03-01T11:40:26.679Z,9.80
2023-03-01T11:43:07.480Z,9.70
2023-03-01T11:45:52.745Z,9.80
2023-03-01T11:48:49.408Z,10.00
2023-03-01T11:51:27.644Z,9.90
2023-03-01T11:54:21.970Z,9.70
2023-03-01T11:56:58.432Z,9.70
2023-03-01T12:00:09.703Z,9.50
2023-03-01T12:03:22.753Z,9.30
2023-03-01T12:06:08.021Z,9.20
2023-03-01T12:08:43.298Z,9.30
2023-03-01T12:11:28.133Z,9.30
2023-03-01T12:14:34.453Z,9.10
2023-03-01T12:17:31.637Z,8.80
2023-03-01T12:20:16.845Z,8.80
2023-03-01T12:23:20.896Z,9.10
2023-03-01T12:25:55.511Z,9.00
2023-03-01T12:28:54.229Z,9.00
2023-03-01T12:31:58.015Z,8.70
2023-03-01T12:35:05.218Z,8.80
2023-03-01T12:37:47.946Z,8.80
2023-03-01T12:40:41.599Z,8.70
2023-03-01T12:43:23.169Z,8.40
2023-03-01T12:46:09.042Z,8.50
2023-03-01T12:48:50.780Z,8.30
2023-03-01T12:51:26.638Z,8.10
2023-03-01T12:53:58.516Z,8.10
2023-03-01T12:56:30.890Z,8.10
2023-03-01T12:59:08.309Z,8.10
2023-03-01T13:01:45.504Z,7.90
2023-03-01T13:05:00.316Z,7.70
2023-03-01T13:07:38.048Z,7.80
2023-03-01T13:10:23.644Z,8.00
2023-03-01T13:13:10.906Z,7.80
2023-03-01T13:15:40.521Z,7.90
2023-03-01T13:18:34.507Z,7.90
2023-03-01T13:21:06.770Z,7.70
2023-03-01T13:23:39.676Z,7.70
2023-03-01T13:26:17.100Z,7.70
2023-03-01T13:29:03.319Z,7.70
2023-03-01T13:32:02.730Z,7.60
2023-03-01T13:34:54.744Z,7.60
2023-03-01T13:37:38.445Z,7.50
2023-03-01T13:41:01.007Z,7.50
2023-03-01T13:43:34.124Z,7.70
2023-03-01T13:46:10.722Z,7.80
2023-03-01T13:48:40.850Z,7.70
2023-03-01T13:51:13.167Z,7.80
2023-03-01T13:53:46.090Z,7.70
2023-03-01T13:56:19.683Z,7.40
2023-03-01T13:58:53.124Z,7.40
2023-03-01T14:01:29.390Z,7.50
2023-03-01T14:04:01.834Z,7.40
2023-03-01T14:06:32.752Z,7.40
2023-03-01T14:09:10.855Z,7.50
2023-03-01T14:12:25.520Z,7.50
2023-03-01T14:15:02.003Z,7.70
2023-03-01T14:18:06.875Z,7.50
2023-03-01T14:20:41.417Z,7.50
2023-03-01T14:23:15.372Z,7.50
2023-03-01T14:25:50.869Z,7.60
2023-03-01T14:28:23.890Z,7.60
2023-03-01T14:30:54.410Z,7.70
2023-03-01T14:33:26.656Z,7.70
2023-03-01T14:35:58.874Z,7.70
2023-03-01T14:38:35.814Z,7.60
2023-03-01T14:41:10.833Z,7.60
2023-03-01T14:43:44.753Z,7.60
2023-03-01T14:46:22.297Z,7.60
2023-03-01T14:48:53.338Z,7.70
2023-03-01T14:51:21.781Z,7.60
2023-03-01T14:53:51.488Z,7.50
2023-03-01T14:56:21.927Z,7.50
2023-03-01T14:58:56.104Z,7.60
2023-03-01T15:01:24.823Z,7.50
2023-03-01T15:03:53.708Z,7.50
2023-03-01T15:06:24.847Z,7.50
2023-03-01T15:08:54.428Z,7.50
2023-03-01T15:11:25.905Z,7.60
2023-03-01T15:13:56.197Z,7.50
2023-03-01T15:16:27.544Z,7.50
2023-03-01T15:18:58.159Z,7.40
2023-03-01T15:21:30.053Z,7.40
2023-03-01T15:24:04.639Z,7.30
2023-03-01T15:26:38.759Z,7.30
2023-03-01T15:29:19.259Z,7.30
2023-03-01T15:31:58.405Z,7.40
2023-03-01T15:34:30.230Z,7.40
2023-03-01T15:37:01.557Z,7.40
2023-03-01T15:39:40.247Z,7.30
2023-03-01T15:42:12.466Z,7.30
2023-03-01T15:44:46.930Z,7.20
2023-03-01T15:47:32.789Z,7.20
2023-03-01T15:50:02.752Z,7.10
2023-03-01T15:52:40.261Z,7.10
2023-03-01T15:55:18.884Z,7.00
2023-03-01T15:57:47.497Z,6.90
2023-03-01T16:00:19.367Z,6.90
2023-03-01T16:02:48.106Z,6.90
2023-03-01T16:05:24.182Z,6.80
2023-03-01T16:07:52.799Z,6.80
2023-03-01T16:10:21.707Z,6.70
2023-03-01T16:12:50.717Z,6.70
2023-03-01T16:15:24.161Z,6.70
2023-03-01T16:17:53.188Z,6.70
2023-03-01T16:20:28.532Z,6.70
2023-03-01T16:22:58.809Z,6.70
2023-03-01T16:25:27.072Z,6.60
2023-03-01T16:27:56.313Z,6.50
2023-03-01T16:30:26.048Z,6.50
2023-03-01T16:32:55.452Z,6.40
2023-03-01T16:35:24.595Z,6.30
2023-03-01T16:37:54.874Z,6.30
2023-03-01T16:40:26.938Z,6.20
2023-03-01T16:43:00.358Z,6.20
2023-03-01T16:45:36.122Z,6.20
2023-03-01T16:48:04.788Z,6.10
2023-03-01T16:50:33.099Z,6.00
2023-03-01T16:53:02.624Z,6.00
2023-03-01T16:55:31.096Z,5.90
2023-03-01T16:57:59.364Z,5.90
2023-03-01T17:00:29.211Z,5.80
2023-03-01T17:02:57.547Z,5.80
2023-03-01T17:05:26.872Z,5.70
2023-03-01T17:07:56.620Z,5.70
2023-03-01T17:10:24.963Z,5.60
2023-03-01T17:12:53.274Z,5.60
2023-03-01T17:15:21.620Z,5.50
2023-03-01T17:17:51.989Z,5.50
2023-03-01T17:20:21.020Z,5.40
2023-03-01T17:22:49.378Z,5.40
2023-03-01T17:25:17.696Z,5.40
2023-03-01T17:27:46.080Z,5.30
2023-03-01T17:30:16.370Z,5.20
2023-03-01T17:32:44.985Z,5.20
2023-03-01T17:35:14.909Z,5.20
2023-03-01T17:37:46.557Z,5.10
2023-03-01T17:40:15.755Z,5.10
2023-03-01T17:42:44.110Z,5.10
2023-03-01T17:45:13.133Z,5.00
2023-03-01T17:47:41.545Z,5.00
2023-03-01T17:50:12.377Z,4.90
2023-03-01T17:52:42.607Z,4.80
2023-03-01T17:55:12.290Z,4.70
2023-03-01T17:57:41.369Z,4.70
2023-03-01T18:00:13.686Z,4.70
2023-03-01T18:02:42.097Z,4.60
2023-03-01T18:05:11.388Z,4.60
2023-03-01T18:07:41.105Z,4.50
2023-03-01T18:10:11.083Z,4.50
2023-03-01T18:12:39.841Z,4.40
2023-03-01T18:15:10.153Z,4.40
2023-03-01T18:17:38.847Z,4.40
2023-03-01T18:20:09.548Z,4.40
2023-03-01T18:22:38.427Z,4.30
2023-03-01T18:25:09.192Z,4.20
2023-03-01T18:27:37.825Z,4.20
2023-03-01T18:30:08.940Z,4.20
2023-03-01T18:32:37.502Z,4.20
2023-03-01T18:35:07.106Z,4.20
2023-03-01T18:37:35.429Z,4.20
2023-03-01T18:40:04.672Z,4.10
2023-03-01T18:42:34.397Z,4.10
2023-03-01T18:45:02.715Z,4.00
2023-03-01T18:47:30.984Z,3.90
2023-03-01T18:49:59.330Z,3.90
2023-03-01T18:52:27.629Z,3.80
2023-03-01T18:54:56.572Z,3.80
2023-03-01T18:57:24.938Z,3.70
2023-03-01T18:59:54.574Z,3.60
2023-03-01T19:02:22.842Z,3.50
2023-03-01T19:04:51.714Z,3.40
2023-03-01T19:07:20.490Z,3.40
2023-03-01T19:09:49.035Z,3.40
2023-03-01T19:12:17.339Z,3.40
2023-03-01T19:14:45.638Z,3.40
2023-03-01T19:17:15.839Z,3.30
2023-03-01T19:19:44.157Z,3.30
2023-03-01T19:22:12.435Z,3.40
2023-03-01T19:24:40.804Z,3.30
2023-03-01T19:27:09.108Z,3.30
2023-03-01T19:29:37.378Z,3.30
2023-03-01T19:32:06.091Z,3.30
2023-03-01T19:34:37.124Z,3.30
2023-03-01T19:37:06.027Z,3.20
2023-03-01T19:39:34.394Z,3.30
2023-03-01T19:42:02.753Z,3.20
2023-03-01T19:44:32.455Z,3.20
2023-03-01T19:47:00.754Z,3.10
2023-03-01T19:49:30.241Z,3.10
2023-03-01T19:51:59.985Z,3.10
2023-03-01T19:54:28.355Z,3.10
2023-03-01T19:56:56.904Z,3.00
2023-03-01T19:59:25.580Z,3.00
2023-03-01T20:01:54.048Z,3.00
2023-03-01T20:04:22.407Z,3.00
2023-03-01T20:06:50.783Z,3.00
2023-03-01T20:09:22.266Z,3.00
2023-03-01T20:11:51.582Z,3.10
2023-03-01T20:14:23.345Z,3.00
2023-03-01T20:16:53.248Z,3.00
2023-03-01T20:19:22.125Z,3.00
2023-03-01T20:21:50.490Z,2.90
2023-03-01T20:24:20.486Z,2.90
2023-03-01T20:26:48.796Z,2.90
2023-03-01T20:29:17.164Z,2.80
2023-03-01T20:31:45.483Z,2.80
2023-03-01T20:34:13.826Z,2.80
2023-03-01T20:36:44.249Z,2.80
2023-03-01T20:39:13.012Z,2.70
2023-03-01T20:41:42.905Z,2.70
2023-03-01T20:44:11.399Z,2.60
2023-03-01T20:46:39.938Z,2.60
2023-03-01T20:49:08.423Z,2.60
2023-03-01T20:51:36.822Z,2.50
2023-03-01T20:54:05.489Z,2.50
2023-03-01T20:56:34.276Z,2.50
2023-03-01T20:59:05.405Z,2.40
2023-03-01T21:01:34.104Z,2.40
2023-03-01T21:04:02.512Z,2.30
2023-03-01T21:06:31.419Z,2.30
2023-03-01T21:09:00.078Z,2.20
2023-03-01T21:11:28.515Z,2.20
2023-03-01T21:13:57.764Z,2.20
2023-03-01T21:16:28.195Z,2.20
2023-03-01T21:18:56.503Z,2.10
2023-03-01T21:21:25.421Z,2.10
2023-03-01T21:23:55.331Z,2.10
2023-03-01T21:26:25.866Z,2.10
2023-03-01T21:28:58.625Z,2.00
2023-03-01T21:31:32.114Z,2.00
2023-03-01T21:34:04.110Z,2.00
2023-03-01T21:36:33.547Z,2.00
2023-03-01T21:39:02.756Z,2.00
2023-03-01T21:41:34.914Z,2.00
2023-03-01T21:44:04.895Z,2.00
2023-03-01T21:46:37.592Z,2.00
2023-03-01T21:49:07.237Z,2.00
2023-03-01T21:51:36.976Z,2.00
2023-03-01T21:54:05.753Z,2.10
2023-03-01T21:56:39.092Z,2.10
2023-03-01T21:59:10.086Z,2.00
2023-03-01T22:01:40.411Z,2.10
2023-03-01T22:04:08.732Z,2.00
2023-03-01T22:06:40.818Z,2.00
2023-03-01T22:09:13.792Z,2.00
2023-03-01T22:11:45.087Z,2.00
2023-03-01T22:14:14.447Z,2.00
2023-03-01T22:16:46.752Z,2.00
2023-03-01T22:19:17.490Z,1.90
2023-03-01T22:21:49.883Z,1.90
2023-03-01T22:24:20.484Z,1.90
2023-03-01T22:26:51.675Z,1.80
2023-03-01T22:29:23.403Z,1.80
2023-03-01T22:31:54.327Z,1.70
2023-03-01T22:34:23.539Z,1.70
2023-03-01T22:36:52.625Z,1.70
2023-03-01T22:39:22.373Z,1.60
2023-03-01T22:41:51.393Z,1.60
2023-03-01T22:44:23.016Z,1.60
2023-03-01T22:46:53.442Z,1.50
2023-03-01T22:49:22.416Z,1.40
2023-03-01T22:51:51.503Z,1.40
2023-03-01T22:54:20.567Z,1.30
2023-03-01T22:56:49.612Z,1.20
2023-03-01T22:59:20.820Z,1.30
2023-03-01T23:01:49.197Z,1.20
2023-03-01T23:04:20.379Z,1.20
2023-03-01T23:06:53.769Z,1.20
2023-03-01T23:09:25.286Z,1.20
2023-03-01T23:11:54.159Z,1.10
2023-03-01T23:14:23.090Z,1.10
2023-03-01T23:16:52.538Z,1.20
2023-03-01T23:19:22.238Z,1.10
2023-03-01T23:21:50.994Z,1.10
2023-03-01T23:24:21.512Z,1.10
2023-03-01T23:26:53.382Z,1.10
2023-03-01T23:29:22.686Z,1.10
2023-03-01T23:31:51.038Z,1.00
2023-03-01T23:34:21.070Z,1.00
2023-03-01T23:36:49.415Z,0.90
2023-03-01T23:39:17.712Z,0.90
2023-03-01T23:41:46.070Z,0.90
2023-03-01T23:44:17.828Z,0.80
2023-03-01T23:46:47.398Z,0.80
2023-03-01T23:49:19.037Z,0.80
2023-03-01T23:51:49.496Z,0.80
2023-03-01T23:54:20.691Z,0.70
2023-03-01T23:56:49.032Z,0.70
2023-03-01T23:59:19.635Z,0.70
